Portada
METAR-TAF:

METAR-TAF

Aeropuertos :

Whiteside County Airport (Jos. H. Bittorf Field)

Sterling / Rock Falls, Illinois, Estados Unidos

latitud: 41-45N, longitud: 089-40W, altitud: 197 m

Observación

El informe se hizo hace 18 minutos, a las 01:56 UTC
Viento 11 kt del norte-noroeste
Temperatura 19°C
Humedad 94%
Presión 1012 hPa
Visibilidad: 16.1 km
Cielo cubierto a una altura de 10000 ft

METAR: KSQI 290156Z 33011KT 10SM OVC100 19/18 A2988 RMK AO2 RAB11E28 SLP983 P0000 T01890178

Hora: 21:14 (02:14 UTC)


TAF: falta

Observaciones y pronósticos meteorológicos de más de 4000 aeropuertos (mensajes METAR y TAF).

Los puntos amarillos y rojos representan las estaciones disponibles.

Ponga el ratón en el punto deseado para ver el nombre de la estación.

Haga clic para ver las observaciones y los pronósticos meteorológicos.

Para cambiar el mapa : haga clic en los botones verdes con una cruz de color negro para hacer un zoom, en el botón verde con un guión para alejar o en las flechas verdes para mapas adyacentes.


METAR-TAF: